Clintonville, WI

9:52 AM CDT on May 26, 2015 (GMT -0500)
Clintonville Municipal | | Change Station
CLOSE
Current Station
Airport
Location: Clintonville,
Elevation: 823 ft
Nearby Weather Stations
Active Advisory: Special Statement

Elev 823 ft 44.62 °N, 88.73 °W | Updated 17 minutes ago

Clear
Clear
70 °F
Feels Like 70 °F
N
4
Wind Variable Wind from SSW

Today
High -- | Low -- °F
--% Chance of Precip.
Yesterday
High -- | Low -- °F
Precip. -- in
5:17 AM 8:27 PM
First Quarter, 58% visible
Pressure 29.85 in
Visibility 10.0 miles
Clouds Clear
Dew Point 63 °F
Humidity 78%
Rainfall 0.00 in
Snow Depth Not available.
UV 6 out of 12
Pollen 7.60 out of 12
Air Quality Not available.
Flu Activity Sporadic
METAR KCLI 261435Z AUTO 21003KT 10SM CLR 21/17 A2985 RMK AO2

More Conditions Fewer Conditions

Pressure 29.85 in
Visibility 10.0 miles
Clouds Clear
Dew Point 63 °F
Humidity 78%
Rainfall 0.00 in
Snow Depth Not available.
UV 6 out of 12
Pollen 7.60 out of 12
Air Quality Not available.
Flu Activity Sporadic
METAR KCLI 261435Z AUTO 21003KT 10SM CLR 21/17 A2985 RMK AO2

More Conditions Fewer Conditions

10-Day Weather Forecast

Almanac

Astronomy

May. 26, 2015 Rise Set
Actual Time
Civil Twilight
Nautical Twilight
Astronomical Twilight
Moon
Length of Visible Light
Length of Day
Tomorrow will be .
, % of the Moon is Illuminated

Today's Extremes

State Highs State Lows

Community

WunderPhotos

Upload Photos

1,824,344 photos uploaded!

WunderBlogs® & News

Nearby

Air Quality

  Air Quality AQ Index Pollutant
Not available.

Snow Depth

Station Depth Elevation

Earthquake Activity

City Distance Mag. Time & Date
Minimum magnitude displayed is 2.5.

Coastal Water Temperatures

Place Temperature

Stations

Nearby Weather Stations

Station Location Temp. Windchill Dew Point Humidity Wind Precip. Elev Updated Type
                   
Special Statement
Statement as of 9:11 AM CDT on May 26, 2015

... Showers and storms will be on the increase late this morning
and early this afternoon...

A large area of showers and thunderstorms across southeast
Minnesota... northeast Iowa and northwest Illinois will continue
move northeast into central... north central and northeast
Wisconsin late this morning or early this afternoon. The
showers and storms should arrive at Stevens Point... Wausau...
Marshfield and Wisconsin Rapids between 10 am and noon. The
showers and storms should arrive at Oshkosh... Green Bay...
Appleton... Oconto and Shawano between 11 am and 1 PM. For
locations north of Wausau to Sturgeon Bay line... the showers
and storms should arrive between noon and 3 PM.